Time;durP1;ratioP1;P1;durP2;ratioP2;P2;SDS_P1;SDS_P2;PMS_P1;PMS_P2;Temp;Humidity;BMP_temperature;BMP_pressure;BME280_temperature;BME280_humidity;BME280_pressure;Samples;Min_cycle;Max_cycle;Signal;HPM_P1;HPM_P2
2022/08/15 00:02:00;;;;;;;8.30;6.47;;;25.80;27.30;;;;;;5010658;28;20597;-73
2022/08/15 00:04:27;;;;;;;10.97;6.63;;;26.30;26.90;;;;;;5003869;28;20424;-73
2022/08/15 00:06:53;;;;;;;9.80;6.40;;;26.40;25.50;;;;;;5013397;28;20165;-73
2022/08/15 00:09:24;;;;;;;13.47;7.27;;;25.90;26.80;;;;;;5011214;28;20420;-73
2022/08/15 00:11:56;;;;;;;13.70;6.57;;;26.10;28.40;;;;;;5012316;28;20541;-73
2022/08/15 00:14:30;;;;;;;18.23;6.20;;;26.30;26.10;;;;;;5013082;28;20812;-74
2022/08/15 00:16:57;;;;;;;10.20;6.57;;;25.70;27.20;;;;;;5012664;28;20399;-73
2022/08/15 00:19:31;;;;;;;11.57;5.87;;;25.50;27.50;;;;;;5013043;28;20435;-73
2022/08/15 00:22:01;;;;;;;18.53;7.03;;;25.30;28.80;;;;;;5011539;28;20462;-73
2022/08/15 00:24:30;;;;;;;10.00;6.13;;;25.60;27.80;;;;;;4993462;28;20570;-73
2022/08/15 00:26:58;;;;;;;11.07;6.20;;;25.90;27.90;;;;;;4993400;28;20796;-73
2022/08/15 00:29:25;;;;;;;20.00;7.27;;;26.00;26.80;;;;;;5006326;28;20478;-73
2022/08/15 00:31:53;;;;;;;8.50;5.90;;;26.10;27.30;;;;;;5010709;28;20526;-73
2022/08/15 00:34:21;;;;;;;13.03;7.00;;;26.00;27.10;;;;;;5012739;28;20419;-73
2022/08/15 00:36:48;;;;;;;19.43;7.10;;;25.60;27.70;;;;;;5011975;28;20911;-73
2022/08/15 00:39:15;;;;;;;24.77;7.20;;;25.80;27.70;;;;;;5012139;28;20461;-73
2022/08/15 00:41:42;;;;;;;14.90;6.53;;;25.50;28.60;;;;;;5011261;28;20459;-73
2022/08/15 00:44:13;;;;;;;12.43;6.90;;;24.80;30.80;;;;;;5012366;28;20416;-73
2022/08/15 00:46:42;;;;;;;14.47;7.10;;;24.70;30.90;;;;;;5013195;28;20759;-73
2022/08/15 00:49:09;;;;;;;14.13;7.20;;;24.70;31.90;;;;;;5011648;28;20411;-73
2022/08/15 00:51:52;;;;;;;8.13;6.80;;;24.70;31.80;;;;;;5010675;28;20485;-73
2022/08/15 00:54:27;;;;;;;14.53;6.63;;;24.00;34.30;;;;;;5011265;28;20411;-73
2022/08/15 00:56:59;;;;;;;11.80;6.90;;;23.90;34.80;;;;;;5012519;28;20404;-73
2022/08/15 00:59:30;;;;;;;11.80;7.00;;;24.30;36.10;;;;;;5012226;28;20403;-73
2022/08/15 01:01:58;;;;;;;10.33;6.63;;;24.60;33.10;;;;;;5010503;28;20455;-73
2022/08/15 01:04:25;;;;;;;12.33;6.83;;;24.60;33.90;;;;;;5010715;28;20446;-73
2022/08/15 01:06:51;;;;;;;10.00;6.90;;;24.00;35.00;;;;;;5012356;28;20415;-73
2022/08/15 01:09:19;;;;;;;7.63;6.50;;;24.30;33.40;;;;;;5011876;28;20426;-73
2022/08/15 01:12:00;;;;;;;11.37;6.93;;;24.00;33.90;;;;;;5011379;28;20497;-73
2022/08/15 01:14:26;;;;;;;11.10;6.70;;;24.30;34.50;;;;;;5011320;28;20437;-73
2022/08/15 01:16:52;;;;;;;11.00;6.77;;;24.30;34.00;;;;;;5012343;28;20506;-73
2022/08/15 01:19:21;;;;;;;13.70;6.80;;;24.10;33.50;;;;;;5010946;28;20836;-73
2022/08/15 01:21:53;;;;;;;9.30;6.40;;;23.70;33.80;;;;;;5010787;28;20255;-73
2022/08/15 01:24:37;;;;;;;44.80;6.87;;;23.90;34.50;;;;;;5010802;28;20511;-73
2022/08/15 01:27:03;;;;;;;8.93;6.23;;;23.70;33.80;;;;;;5012076;28;20433;-73
2022/08/15 01:29:29;;;;;;;11.60;6.70;;;23.90;33.70;;;;;;5011002;28;20443;-73
2022/08/15 01:31:55;;;;;;;10.43;6.40;;;24.10;32.80;;;;;;5010821;28;20479;-73
2022/08/15 01:34:21;;;;;;;13.03;6.97;;;24.30;32.70;;;;;;5009963;28;20432;-73
2022/08/15 01:36:48;;;;;;;11.60;6.60;;;24.40;31.60;;;;;;5011929;28;20176;-73
2022/08/15 01:39:40;;;;;;;12.47;6.60;;;24.30;31.80;;;;;;5011268;28;20177;-73
2022/08/15 01:42:38;;;;;;;10.73;6.30;;;24.30;31.90;;;;;;5010923;28;20569;-74
2022/08/15 01:45:07;;;;;;;10.20;7.13;;;24.50;31.40;;;;;;4988993;28;20450;-73
2022/08/15 01:47:46;;;;;;;10.87;7.03;;;24.60;31.00;;;;;;4981813;28;20470;-73
2022/08/15 01:50:24;;;;;;;9.13;6.10;;;24.50;31.10;;;;;;5000855;28;20575;-73
2022/08/15 01:52:59;;;;;;;11.90;6.83;;;24.70;30.70;;;;;;5003152;28;20440;-73
2022/08/15 01:55:36;;;;;;;12.90;8.10;;;25.10;31.30;;;;;;4989894;28;20966;-73
2022/08/15 01:58:04;;;;;;;10.37;6.87;;;25.50;29.40;;;;;;4985186;28;20519;-73
2022/08/15 02:00:30;;;;;;;11.93;6.23;;;25.60;29.90;;;;;;4969777;28;20442;-74
2022/08/15 02:02:56;;;;;;;14.10;6.60;;;25.60;29.90;;;;;;4978068;28;20491;-73
2022/08/15 02:05:21;;;;;;;9.40;6.40;;;25.60;29.90;;;;;;4990241;28;20193;-73
2022/08/15 02:07:47;;;;;;;9.67;6.70;;;25.50;30.20;;;;;;4993830;28;20201;-73
2022/08/15 02:10:12;;;;;;;18.90;8.90;;;25.60;29.10;;;;;;4985023;28;20216;-73
2022/08/15 02:12:40;;;;;;;10.93;6.83;;;25.60;29.90;;;;;;4974143;28;20282;-73
2022/08/15 02:15:12;;;;;;;12.37;6.87;;;25.60;29.90;;;;;;5000480;28;20200;-73
2022/08/15 02:17:39;;;;;;;13.73;6.47;;;25.60;30.00;;;;;;4987265;28;20526;-73
2022/08/15 02:20:05;;;;;;;8.50;5.93;;;25.40;28.80;;;;;;5003494;28;20526;-73
2022/08/15 02:22:31;;;;;;;13.80;6.57;;;24.90;30.00;;;;;;5013225;28;20653;-73
2022/08/15 02:24:59;;;;;;;17.27;6.80;;;24.90;29.90;;;;;;5014856;28;20424;-73
2022/08/15 02:27:31;;;;;;;9.00;6.30;;;24.60;30.50;;;;;;5012503;28;20268;-73
2022/08/15 02:29:59;;;;;;;14.87;5.90;;;24.90;30.20;;;;;;5015011;28;20776;-73
2022/08/15 02:32:25;;;;;;;8.33;6.00;;;24.80;30.20;;;;;;5014530;28;20415;-73
2022/08/15 02:34:52;;;;;;;12.17;6.40;;;24.70;31.20;;;;;;5013803;28;20432;-73
2022/08/15 02:37:18;;;;;;;10.80;6.53;;;24.90;30.70;;;;;;5012921;28;20435;-73
2022/08/15 02:39:49;;;;;;;16.80;5.63;;;23.70;33.90;;;;;;5014545;28;20789;-73
2022/08/15 02:42:16;;;;;;;12.20;6.47;;;23.40;35.60;;;;;;5014566;28;20435;-73
2022/08/15 02:44:43;;;;;;;10.23;6.07;;;23.70;34.70;;;;;;5014884;28;20950;-73
2022/08/15 02:47:10;;;;;;;8.70;5.93;;;24.40;33.10;;;;;;5012655;28;20470;-73
2022/08/15 02:49:36;;;;;;;13.60;6.47;;;24.70;32.20;;;;;;5014648;28;20442;-73
2022/08/15 02:52:03;;;;;;;11.77;6.13;;;24.90;32.00;;;;;;5013190;28;21004;-73
2022/08/15 02:54:29;;;;;;;8.03;5.60;;;25.10;31.00;;;;;;5014625;28;20839;-73
2022/08/15 02:56:55;;;;;;;7.70;5.20;;;25.10;31.60;;;;;;5014910;28;20506;-73
2022/08/15 02:59:22;;;;;;;9.27;5.83;;;25.20;31.10;;;;;;5013554;28;20195;-73
2022/08/15 03:01:48;;;;;;;9.77;5.40;;;25.10;32.10;;;;;;5013773;28;20443;-73
2022/08/15 03:04:19;;;;;;;10.97;5.40;;;25.00;33.00;;;;;;5014181;28;20416;-73
2022/08/15 03:06:46;;;;;;;8.67;5.07;;;25.10;32.80;;;;;;5014767;28;20251;-73
2022/08/15 03:09:14;;;;;;;12.73;5.37;;;25.10;32.20;;;;;;5013280;28;20444;-73
2022/08/15 03:11:42;;;;;;;10.83;5.50;;;25.20;32.90;;;;;;5013098;28;20559;-73
2022/08/15 03:14:11;;;;;;;10.97;5.70;;;24.80;33.80;;;;;;5013851;28;20424;-73
2022/08/15 03:16:43;;;;;;;9.33;5.50;;;24.10;35.50;;;;;;5014561;28;20915;-73
2022/08/15 03:19:16;;;;;;;12.40;5.20;;;23.90;37.40;;;;;;5012598;28;20436;-73
2022/08/15 03:21:45;;;;;;;9.03;5.33;;;23.90;37.70;;;;;;5008105;28;20451;-73
2022/08/15 03:24:12;;;;;;;8.83;6.00;;;24.20;37.70;;;;;;5013580;28;20419;-73
2022/08/15 03:26:38;;;;;;;13.40;5.90;;;24.60;36.80;;;;;;5014415;28;20503;-73
2022/08/15 03:29:06;;;;;;;9.43;6.17;;;24.60;37.10;;;;;;5014135;28;20419;-73
2022/08/15 03:31:34;;;;;;;7.27;5.13;;;24.60;36.60;;;;;;5011690;28;20506;-73
2022/08/15 03:34:00;;;;;;;13.30;5.70;;;24.60;37.60;;;;;;5013781;28;20416;-73
2022/08/15 03:36:26;;;;;;;9.80;6.43;;;24.60;36.80;;;;;;5013639;28;20504;-73
2022/08/15 03:38:52;;;;;;;10.07;6.20;;;24.60;36.90;;;;;;5014131;28;20506;-73
2022/08/15 03:41:17;;;;;;;6.40;5.23;;;24.60;37.00;;;;;;5012384;28;20846;-73
2022/08/15 03:43:47;;;;;;;7.30;5.60;;;24.60;37.50;;;;;;5013625;28;20184;-73
2022/08/15 03:46:16;;;;;;;6.73;5.67;;;24.60;36.40;;;;;;5010646;28;20204;-73
2022/08/15 03:48:48;;;;;;;11.80;5.97;;;24.60;36.50;;;;;;5011702;28;20447;-73
2022/08/15 03:51:16;;;;;;;7.73;5.20;;;24.60;35.70;;;;;;5011727;28;20512;-73
2022/08/15 03:53:51;;;;;;;8.10;5.30;;;24.70;33.10;;;;;;5011904;28;20508;-73
2022/08/15 03:56:25;;;;;;;7.20;5.00;;;24.80;33.90;;;;;;5013238;28;20923;-73
2022/08/15 03:58:52;;;;;;;12.53;5.40;;;24.70;34.80;;;;;;5013465;28;20448;-73
2022/08/15 04:01:24;;;;;;;8.67;4.90;;;24.60;34.80;;;;;;5012452;28;20450;-73
2022/08/15 04:03:51;;;;;;;8.00;4.60;;;24.60;33.90;;;;;;5011753;28;20441;-73
2022/08/15 04:06:20;;;;;;;5.43;4.50;;;24.40;32.70;;;;;;5012341;28;20516;-73
2022/08/15 04:08:47;;;;;;;6.90;5.00;;;24.10;34.30;;;;;;5013395;28;20426;-73
2022/08/15 04:11:14;;;;;;;7.00;4.97;;;24.20;34.80;;;;;;5012198;28;20888;-73
2022/08/15 04:13:40;;;;;;;8.27;4.83;;;24.30;36.00;;;;;;5012087;28;20518;-73
2022/08/15 04:16:07;;;;;;;5.87;4.50;;;24.60;35.60;;;;;;5012114;28;20433;-73
2022/08/15 04:18:34;;;;;;;11.83;4.70;;;24.30;36.00;;;;;;5006062;28;20898;-73
2022/08/15 04:21:03;;;;;;;8.20;4.93;;;24.30;36.30;;;;;;5012438;28;20435;-73
2022/08/15 04:23:29;;;;;;;8.97;5.00;;;24.30;36.80;;;;;;5012249;28;20472;-73
2022/08/15 04:25:55;;;;;;;6.33;4.93;;;24.30;37.30;;;;;;5013090;28;20584;-73
2022/08/15 04:28:23;;;;;;;7.50;4.50;;;24.30;37.30;;;;;;5011882;28;20199;-73
2022/08/15 04:30:49;;;;;;;5.13;4.77;;;24.30;36.70;;;;;;5010663;28;20477;-73
2022/08/15 04:33:16;;;;;;;11.23;5.40;;;24.30;36.40;;;;;;5012366;28;20974;-73
2022/08/15 04:35:49;;;;;;;10.97;4.70;;;24.20;37.40;;;;;;5011673;28;20463;-73
2022/08/15 04:38:16;;;;;;;9.43;5.07;;;24.40;36.30;;;;;;5011630;28;20439;-73
2022/08/15 04:40:43;;;;;;;6.77;5.00;;;24.40;35.30;;;;;;5012519;28;20437;-73
2022/08/15 04:43:10;;;;;;;10.07;5.20;;;24.50;35.50;;;;;;5011923;28;20939;-73
2022/08/15 04:45:37;;;;;;;7.83;4.97;;;24.50;36.30;;;;;;5009476;28;20428;-73
2022/08/15 04:48:04;;;;;;;7.67;4.63;;;24.40;36.40;;;;;;5011381;28;20442;-73
2022/08/15 04:50:31;;;;;;;7.63;4.90;;;24.30;36.50;;;;;;5012207;28;20466;-73
2022/08/15 04:52:59;;;;;;;17.13;4.80;;;23.80;35.10;;;;;;5010048;28;20443;-73
2022/08/15 04:55:26;;;;;;;9.17;4.90;;;23.70;35.00;;;;;;5009113;28;20496;-73
2022/08/15 04:57:52;;;;;;;6.13;4.20;;;24.00;35.60;;;;;;5012562;28;20530;-73
2022/08/15 05:00:22;;;;;;;9.30;4.40;;;23.70;35.00;;;;;;5011718;28;20478;-73
2022/08/15 05:03:14;;;;;;;5.90;4.37;;;24.10;34.20;;;;;;5007680;28;20442;-73
2022/08/15 05:05:44;;;;;;;8.63;4.30;;;24.20;34.10;;;;;;5006135;28;20417;-73
2022/08/15 05:08:11;;;;;;;5.83;4.30;;;24.10;32.90;;;;;;5009824;28;20444;-73
2022/08/15 05:10:37;;;;;;;6.30;4.10;;;24.20;32.80;;;;;;5011730;28;20835;-73
2022/08/15 05:13:17;;;;;;;13.83;4.80;;;24.30;33.70;;;;;;5011159;28;20431;-73
2022/08/15 05:15:44;;;;;;;9.40;4.13;;;24.40;32.80;;;;;;5011929;28;20416;-73
2022/08/15 05:18:10;;;;;;;10.17;4.47;;;24.10;33.00;;;;;;5011046;28;21007;-73
2022/08/15 05:20:36;;;;;;;6.13;4.00;;;24.10;33.20;;;;;;5011704;28;20477;-73
2022/08/15 05:23:05;;;;;;;6.63;4.10;;;23.80;33.80;;;;;;5009973;28;20270;-73
2022/08/15 05:25:33;;;;;;;5.40;4.00;;;24.10;33.30;;;;;;5010617;28;20187;-73
2022/08/15 05:28:00;;;;;;;6.37;4.43;;;24.20;32.10;;;;;;5011251;28;20443;-73
2022/08/15 05:30:26;;;;;;;5.07;3.70;;;23.40;34.50;;;;;;5002661;28;20859;-73
2022/08/15 05:33:08;;;;;;;10.33;4.20;;;23.50;34.50;;;;;;5009439;28;20438;-73
2022/08/15 05:35:35;;;;;;;5.93;4.23;;;23.90;33.70;;;;;;5002472;28;20779;-73
2022/08/15 05:38:05;;;;;;;5.80;4.00;;;24.20;33.20;;;;;;5012091;28;20417;-73
2022/08/15 05:40:42;;;;;;;7.50;4.20;;;24.50;31.50;;;;;;5011609;28;20462;-73
2022/08/15 05:43:18;;;;;;;10.60;4.40;;;24.70;32.10;;;;;;5010312;28;20775;-73
2022/08/15 05:45:58;;;;;;;7.33;3.90;;;24.60;30.90;;;;;;5008516;28;20489;-73
2022/08/15 05:48:31;;;;;;;8.80;4.40;;;24.60;30.60;;;;;;5009893;28;20797;-73
2022/08/15 05:51:15;;;;;;;6.10;3.90;;;24.90;30.00;;;;;;5010869;28;20467;-73
2022/08/15 05:54:01;;;;;;;7.37;4.13;;;24.50;31.50;;;;;;5010131;28;20836;-73
2022/08/15 05:56:31;;;;;;;7.57;4.07;;;24.60;30.60;;;;;;5009856;28;20918;-73
2022/08/15 05:59:04;;;;;;;5.67;3.93;;;24.10;31.60;;;;;;5010807;28;20808;-73
2022/08/15 06:01:36;;;;;;;12.80;3.87;;;24.60;31.00;;;;;;5005501;28;20557;-73
2022/08/15 06:04:11;;;;;;;10.47;4.20;;;24.80;32.30;;;;;;5010353;28;20439;-73
2022/08/15 06:06:41;;;;;;;9.40;3.90;;;24.90;32.90;;;;;;5010419;28;20466;-73
2022/08/15 06:09:30;;;;;;;4.73;3.77;;;24.70;32.00;;;;;;5011448;28;20760;-73
2022/08/15 06:11:58;;;;;;;6.30;3.97;;;24.20;31.50;;;;;;5010043;28;20471;-73
2022/08/15 06:14:34;;;;;;;5.97;4.30;;;24.20;31.90;;;;;;5011103;28;20425;-73
2022/08/15 06:17:12;;;;;;;9.70;3.93;;;24.50;32.80;;;;;;5010010;28;20418;-73
2022/08/15 06:19:42;;;;;;;7.87;4.20;;;24.90;30.10;;;;;;5003040;28;20918;-73
2022/08/15 06:22:35;;;;;;;6.30;4.23;;;25.10;29.60;;;;;;5009012;28;20430;-73
2022/08/15 06:25:05;;;;;;;8.73;3.53;;;25.30;30.10;;;;;;5009439;28;20470;-73
2022/08/15 06:27:36;;;;;;;5.30;3.47;;;25.20;29.70;;;;;;5009833;28;20430;-73
2022/08/15 06:30:15;;;;;;;7.47;3.77;;;25.10;29.00;;;;;;5009893;28;20450;-73
2022/08/15 06:33:16;;;;;;;5.27;3.57;;;25.00;29.50;;;;;;5008000;28;20448;-73
2022/08/15 06:35:51;;;;;;;5.87;4.10;;;24.90;29.50;;;;;;5024688;23;20503;-71
2022/08/15 06:38:19;;;;;;;6.67;3.50;;;25.10;28.70;;;;;;5004029;28;20805;-71
2022/08/15 06:40:53;;;;;;;8.90;4.20;;;25.30;28.50;;;;;;5008404;28;20459;-71
2022/08/15 06:43:19;;;;;;;7.17;3.70;;;25.40;28.90;;;;;;5009382;28;20439;-71
2022/08/15 06:45:49;;;;;;;5.20;3.80;;;25.30;28.40;;;;;;5011196;28;20469;-70
2022/08/15 06:48:19;;;;;;;6.87;4.47;;;24.00;31.20;;;;;;5010857;28;20443;-71
2022/08/15 06:50:51;;;;;;;4.80;3.87;;;23.70;32.00;;;;;;5007544;28;20555;-70
2022/08/15 06:53:36;;;;;;;4.57;3.50;;;23.60;33.00;;;;;;5006595;28;20436;-72
2022/08/15 06:56:10;;;;;;;7.53;3.70;;;24.20;30.80;;;;;;5011007;28;20436;-71
2022/08/15 06:59:01;;;;;;;5.97;3.70;;;24.10;31.40;;;;;;5010238;28;20439;-71
2022/08/15 07:01:52;;;;;;;7.90;3.83;;;24.60;31.70;;;;;;5006436;28;20411;-70
2022/08/15 07:05:04;;;;;;;6.03;4.13;;;24.70;30.30;;;;;;5013254;28;20429;-71
2022/08/15 07:07:35;;;;;;;8.57;3.30;;;24.40;30.10;;;;;;5012025;28;20518;-71
2022/08/15 07:10:27;;;;;;;4.77;3.27;;;23.70;31.00;;;;;;5012075;28;20438;-72
2022/08/15 07:13:12;;;;;;;5.77;3.70;;;23.70;31.50;;;;;;5009044;28;20436;-71
2022/08/15 07:15:56;;;;;;;9.70;3.63;;;23.70;31.80;;;;;;5010198;28;20436;-71
2022/08/15 07:18:31;;;;;;;5.77;3.53;;;23.90;31.40;;;;;;5010734;28;20419;-72
2022/08/15 07:21:06;;;;;;;7.37;3.80;;;24.00;31.00;;;;;;5010133;28;20442;-70
2022/08/15 07:23:33;;;;;;;4.17;3.30;;;23.90;31.00;;;;;;5009512;28;20427;-70
2022/08/15 07:26:07;;;;;;;7.07;3.70;;;23.70;30.10;;;;;;5011108;28;20455;-71
2022/08/15 07:28:35;;;;;;;7.60;3.20;;;23.80;30.40;;;;;;5011735;28;20431;-71
2022/08/15 07:31:18;;;;;;;4.27;3.37;;;24.30;29.40;;;;;;5011240;28;20534;-71
2022/08/15 07:33:47;;;;;;;4.70;3.30;;;24.00;28.80;;;;;;5012799;28;20527;-71
2022/08/15 07:36:16;;;;;;;4.63;3.03;;;23.50;29.20;;;;;;5013645;28;21011;-71
2022/08/15 07:38:41;;;;;;;3.63;2.90;;;23.20;29.60;;;;;;5014172;28;20411;-70
2022/08/15 07:41:26;;;;;;;5.10;3.70;;;23.30;29.00;;;;;;5011951;28;20827;-71
2022/08/15 07:43:59;;;;;;;5.33;3.50;;;24.00;28.80;;;;;;5012301;28;20181;-72
2022/08/15 07:46:44;;;;;;;8.60;3.63;;;24.10;28.50;;;;;;5011450;28;20875;-71
2022/08/15 07:49:15;;;;;;;3.40;3.20;;;24.00;28.80;;;;;;5013976;28;20802;-70
2022/08/15 07:51:46;;;;;;;6.53;3.60;;;23.80;29.20;;;;;;5012958;28;20972;-70
2022/08/15 07:54:32;;;;;;;4.27;3.33;;;24.50;28.10;;;;;;5012335;28;20437;-71
2022/08/15 07:57:02;;;;;;;6.60;4.10;;;24.30;29.30;;;;;;5006100;28;20457;-70
2022/08/15 07:59:33;;;;;;;4.77;3.57;;;23.60;30.40;;;;;;5011744;28;20434;-70
2022/08/15 08:02:20;;;;;;;7.60;3.60;;;23.50;30.80;;;;;;5010006;28;20974;-71
2022/08/15 08:04:46;;;;;;;8.40;4.00;;;23.40;31.10;;;;;;5007937;28;20750;-70
2022/08/15 08:07:23;;;;;;;4.60;3.63;;;23.60;31.00;;;;;;5013514;28;21290;-71
2022/08/15 08:10:08;;;;;;;7.87;3.77;;;24.00;30.60;;;;;;5013362;28;20662;-71
2022/08/15 08:12:54;;;;;;;8.47;3.67;;;24.60;29.30;;;;;;5009998;28;20551;-70
2022/08/15 08:15:36;;;;;;;6.47;3.70;;;24.00;28.80;;;;;;5009423;28;21947;-70
2022/08/15 08:18:19;;;;;;;4.37;3.20;;;24.50;29.20;;;;;;5009347;28;20423;-70
2022/08/15 08:20:53;;;;;;;5.53;3.93;;;24.40;29.40;;;;;;5007439;28;20404;-70
2022/08/15 08:23:33;;;;;;;5.37;4.00;;;24.40;29.10;;;;;;5011514;28;20464;-70
2022/08/15 08:26:37;;;;;;;8.50;4.07;;;24.10;29.10;;;;;;5013019;28;20923;-71
2022/08/15 08:29:03;;;;;;;6.60;3.87;;;24.30;29.00;;;;;;4971278;28;20442;-70
2022/08/15 08:31:45;;;;;;;7.37;4.33;;;24.50;29.20;;;;;;4955000;28;20464;-70
2022/08/15 08:34:30;;;;;;;5.43;4.07;;;23.90;29.70;;;;;;4971474;28;20167;-70
2022/08/15 08:37:11;;;;;;;9.43;4.10;;;24.00;29.80;;;;;;4970479;28;20453;-69
2022/08/15 08:39:43;;;;;;;5.23;4.30;;;24.10;29.80;;;;;;4967306;28;20429;-70
2022/08/15 08:42:44;;;;;;;6.30;3.53;;;24.40;29.10;;;;;;4961126;28;20452;-70
2022/08/15 08:45:20;;;;;;;5.93;3.60;;;24.60;28.00;;;;;;4967994;28;20492;-71
2022/08/15 08:48:23;;;;;;;5.63;3.50;;;24.90;26.10;;;;;;4959542;28;20460;-70
2022/08/15 08:50:53;;;;;;;7.30;3.50;;;24.80;26.30;;;;;;4960779;28;20466;-70
2022/08/15 08:53:21;;;;;;;10.77;3.40;;;25.10;26.30;;;;;;4955640;28;20524;-70
2022/08/15 08:55:54;;;;;;;4.60;3.50;;;25.40;25.00;;;;;;4971198;28;20444;-70
2022/08/15 08:58:28;;;;;;;4.00;3.57;;;25.50;24.90;;;;;;4957121;28;20564;-70
2022/08/15 09:00:55;;;;;;;4.27;3.23;;;25.20;24.80;;;;;;4970838;28;20881;-70
2022/08/15 09:03:27;;;;;;;4.13;3.70;;;25.50;24.30;;;;;;4969422;28;20414;-70
2022/08/15 09:05:55;;;;;;;4.43;3.70;;;25.90;23.80;;;;;;4992785;28;20975;-69
2022/08/15 09:08:32;;;;;;;8.73;3.47;;;26.20;23.40;;;;;;5005865;28;20858;-70
2022/08/15 09:11:08;;;;;;;3.80;3.43;;;26.00;23.30;;;;;;5012335;28;20447;-71
2022/08/15 09:13:38;;;;;;;5.73;3.30;;;25.90;24.00;;;;;;5011800;28;20415;-70
2022/08/15 09:16:32;;;;;;;7.50;3.70;;;25.60;24.00;;;;;;5011921;28;20494;-70
2022/08/15 09:19:27;;;;;;;6.00;3.40;;;25.50;24.30;;;;;;5004607;28;20947;-71
2022/08/15 09:21:54;;;;;;;4.07;3.60;;;25.30;24.10;;;;;;5005873;28;20431;-71
2022/08/15 09:24:22;;;;;;;3.57;3.30;;;25.60;23.40;;;;;;5011447;28;20799;-70
2022/08/15 09:27:05;;;;;;;5.33;3.30;;;25.40;23.90;;;;;;5007314;28;20505;-70
2022/08/15 09:29:43;;;;;;;3.87;3.30;;;25.20;24.00;;;;;;5007174;28;20428;-71
2022/08/15 09:32:26;;;;;;;9.40;4.33;;;25.00;24.60;;;;;;5007514;28;20552;-71
2022/08/15 09:35:10;;;;;;;6.23;3.53;;;25.60;24.10;;;;;;5007545;28;20788;-71
2022/08/15 09:37:41;;;;;;;8.47;3.40;;;26.50;22.80;;;;;;5010376;28;20423;-71
2022/08/15 09:40:26;;;;;;;4.83;3.57;;;25.70;23.60;;;;;;5009784;28;20530;-71
2022/08/15 09:43:12;;;;;;;7.00;3.60;;;25.40;24.00;;;;;;5008785;28;20427;-71
2022/08/15 09:46:03;;;;;;;9.67;3.40;;;25.50;23.50;;;;;;5005196;28;20491;-70
2022/08/15 09:48:53;;;;;;;4.93;3.93;;;25.80;23.00;;;;;;4992205;28;20416;-71
2022/08/15 09:51:37;;;;;;;5.53;3.53;;;26.00;22.40;;;;;;5000117;28;20467;-70
2022/08/15 09:54:23;;;;;;;9.37;4.80;;;25.40;24.30;;;;;;5007159;28;20407;-71
2022/08/15 09:56:51;;;;;;;7.47;3.77;;;25.60;23.60;;;;;;5011029;28;20490;-70
2022/08/15 09:59:25;;;;;;;5.50;3.57;;;25.80;22.50;;;;;;5011552;28;20412;-70
2022/08/15 10:02:00;;;;;;;11.50;3.77;;;26.30;22.00;;;;;;5010549;28;20406;-70
2022/08/15 10:05:00;;;;;;;3.40;3.23;;;26.60;21.90;;;;;;5009213;28;20438;-71
2022/08/15 10:07:48;;;;;;;5.00;3.40;;;27.00;20.50;;;;;;5002193;28;20455;-71
2022/08/15 10:10:32;;;;;;;4.00;3.70;;;27.40;19.80;;;;;;5011433;28;20422;-72
2022/08/15 10:13:06;;;;;;;6.33;3.80;;;28.00;19.30;;;;;;5009850;28;20855;-71
2022/08/15 10:15:41;;;;;;;8.87;4.10;;;28.10;19.70;;;;;;5010814;28;20439;-71
2022/08/15 10:18:31;;;;;;;4.67;3.70;;;28.00;20.00;;;;;;5009732;28;20463;-71
2022/08/15 10:20:56;;;;;;;10.40;3.70;;;28.10;19.40;;;;;;5004483;28;20420;-71
2022/08/15 10:23:47;;;;;;;9.93;3.77;;;27.60;21.00;;;;;;5006424;28;20992;-71
2022/08/15 10:26:18;;;;;;;3.50;3.30;;;27.90;19.30;;;;;;5002401;28;20209;-71
2022/08/15 10:29:09;;;;;;;5.97;3.40;;;27.20;21.10;;;;;;5009235;28;20517;-71
2022/08/15 10:31:43;;;;;;;7.13;3.93;;;26.80;21.80;;;;;;5000884;28;20538;-72
2022/08/15 10:34:18;;;;;;;5.17;3.70;;;27.70;20.00;;;;;;5027838;28;20431;-71
2022/08/15 10:37:09;;;;;;;4.60;3.90;;;27.80;21.00;;;;;;5005949;28;20478;-70
2022/08/15 10:39:54;;;;;;;4.60;3.77;;;27.40;20.70;;;;;;5006157;28;20428;-71
2022/08/15 10:42:49;;;;;;;20.13;4.00;;;28.10;19.50;;;;;;5014500;28;20454;-70
2022/08/15 10:45:41;;;;;;;4.60;3.73;;;27.70;19.30;;;;;;4956558;28;20539;-71
2022/08/15 10:48:24;;;;;;;7.73;3.83;;;26.90;20.40;;;;;;5010986;28;20522;-71
2022/08/15 10:51:27;;;;;;;11.70;4.23;;;26.80;20.70;;;;;;5008584;28;20456;-72
2022/08/15 10:54:16;;;;;;;4.77;4.00;;;27.70;19.20;;;;;;5010183;28;20416;-71
2022/08/15 10:56:42;;;;;;;4.00;3.53;;;27.90;19.40;;;;;;5014858;28;20477;-70
2022/08/15 10:59:18;;;;;;;7.90;3.70;;;27.40;19.40;;;;;;5014271;28;20457;-70
2022/08/15 11:01:45;;;;;;;7.83;4.00;;;27.30;19.20;;;;;;5012808;28;20446;-70
2022/08/15 11:04:35;;;;;;;5.00;3.77;;;27.40;19.80;;;;;;5014330;28;20416;-70
2022/08/15 11:07:26;;;;;;;5.20;3.70;;;27.70;19.10;;;;;;5012935;28;21143;-70
2022/08/15 11:09:59;;;;;;;17.47;3.97;;;27.40;19.20;;;;;;5014227;28;20558;-70
2022/08/15 11:12:28;;;;;;;6.03;4.00;;;28.10;18.80;;;;;;5012969;28;20863;-69
2022/08/15 11:14:59;;;;;;;4.70;4.03;;;28.80;19.20;;;;;;5011201;28;20444;-69
2022/08/15 11:17:29;;;;;;;6.83;3.70;;;29.90;16.80;;;;;;5014424;28;20415;-69
2022/08/15 11:20:15;;;;;;;4.83;3.60;;;30.10;16.40;;;;;;5013214;28;20436;-70
2022/08/15 11:22:58;;;;;;;5.87;3.90;;;29.40;17.70;;;;;;5006468;28;21141;-69
2022/08/15 11:25:33;;;;;;;5.03;3.60;;;29.20;18.10;;;;;;5007061;28;20463;-69
2022/08/15 11:27:59;;;;;;;4.10;3.80;;;29.80;15.80;;;;;;5013975;28;20984;-69
2022/08/15 11:30:28;;;;;;;4.77;3.50;;;30.50;15.20;;;;;;5013579;28;20443;-70
2022/08/15 11:32:53;;;;;;;7.30;4.10;;;31.50;13.80;;;;;;5013415;28;20541;-70
2022/08/15 11:35:24;;;;;;;7.17;3.37;;;32.00;13.40;;;;;;5005863;28;20449;-70
2022/08/15 11:37:53;;;;;;;4.23;3.50;;;33.30;11.60;;;;;;4996515;28;20176;-70
2022/08/15 11:40:21;;;;;;;4.30;3.40;;;34.70;11.30;;;;;;5013906;28;20440;-70
2022/08/15 11:42:49;;;;;;;4.60;3.47;;;34.60;9.90;;;;;;5012235;28;20494;-70
2022/08/15 11:45:19;;;;;;;5.03;3.50;;;35.30;9.40;;;;;;5010987;28;20970;-70
2022/08/15 11:47:52;;;;;;;7.43;3.57;;;34.90;10.70;;;;;;5013646;28;20424;-70
2022/08/15 11:50:35;;;;;;;10.73;3.43;;;33.50;11.50;;;;;;5013463;28;20840;-70
2022/08/15 11:53:08;;;;;;;3.63;3.23;;;33.70;10.80;;;;;;5012002;28;20854;-70
2022/08/15 11:55:39;;;;;;;5.33;3.37;;;32.00;12.50;;;;;;5011970;28;20494;-69
2022/08/15 11:58:13;;;;;;;5.70;3.77;;;31.00;14.00;;;;;;5012699;28;20907;-69
2022/08/15 12:00:51;;;;;;;6.97;3.57;;;30.00;15.10;;;;;;5010546;28;20431;-68
2022/08/15 12:03:27;;;;;;;5.87;3.80;;;30.50;15.50;;;;;;5010997;28;20485;-68
2022/08/15 12:06:16;;;;;;;5.07;3.60;;;31.10;13.80;;;;;;5011766;28;20439;-69
2022/08/15 12:08:44;;;;;;;8.43;3.50;;;31.30;14.40;;;;;;4995514;28;20443;-69
2022/08/15 12:11:13;;;;;;;7.53;3.70;;;31.20;14.00;;;;;;5010401;28;20530;-69
2022/08/15 12:13:41;;;;;;;5.37;3.80;;;31.50;14.00;;;;;;5012823;28;20427;-69
2022/08/15 12:16:22;;;;;;;5.27;3.93;;;31.60;13.30;;;;;;5012092;28;20462;-69
2022/08/15 12:18:49;;;;;;;6.37;3.67;;;30.70;14.90;;;;;;5012424;28;20816;-70
2022/08/15 12:21:16;;;;;;;6.23;3.93;;;31.40;13.70;;;;;;5011044;28;20439;-69
2022/08/15 12:23:52;;;;;;;8.77;3.83;;;31.30;13.90;;;;;;5012757;28;20424;-69
2022/08/15 12:26:20;;;;;;;5.97;4.37;;;32.30;13.30;;;;;;5011665;28;20482;-71
2022/08/15 12:28:46;;;;;;;5.03;3.87;;;32.60;12.00;;;;;;5012969;28;20411;-70
2022/08/15 12:31:36;;;;;;;6.53;3.90;;;34.10;10.30;;;;;;5011835;28;20830;-71
2022/08/15 12:34:02;;;;;;;5.33;3.63;;;33.30;11.50;;;;;;5011219;28;20502;-72
2022/08/15 12:36:29;;;;;;;5.97;3.73;;;34.60;8.90;;;;;;5028313;23;20496;-75
2022/08/15 12:38:55;;;;;;;4.80;3.43;;;34.90;10.00;;;;;;4989176;28;20178;-75
2022/08/15 12:41:21;;;;;;;4.60;3.33;;;35.60;8.90;;;;;;4989083;28;20946;-74
2022/08/15 12:43:47;;;;;;;5.40;3.83;;;34.10;9.80;;;;;;4987800;28;20181;-74
2022/08/15 12:46:13;;;;;;;6.00;3.60;;;31.60;12.60;;;;;;4992117;28;20648;-74
2022/08/15 12:48:40;;;;;;;4.20;3.73;;;31.40;13.10;;;;;;4992287;28;20447;-74
2022/08/15 12:51:09;;;;;;;5.30;4.00;;;30.80;14.10;;;;;;4990566;28;20209;-74
2022/08/15 12:53:38;;;;;;;6.90;4.00;;;31.00;14.40;;;;;;4990867;28;20421;-74
2022/08/15 12:56:07;;;;;;;8.73;3.93;;;31.70;13.90;;;;;;4992387;28;20812;-75
2022/08/15 12:58:33;;;;;;;6.40;3.80;;;32.10;12.20;;;;;;4988987;28;20429;-75
2022/08/15 13:01:00;;;;;;;7.90;4.30;;;31.00;13.30;;;;;;4989138;28;20448;-75
2022/08/15 13:03:30;;;;;;;48.20;5.00;;;31.10;13.80;;;;;;4981891;28;20452;-75
2022/08/15 13:06:26;;;;;;;11.50;4.77;;;28.30;16.20;;;;;;4992894;28;20412;-75
2022/08/15 13:08:51;;;;;;;7.63;4.33;;;28.30;16.70;;;;;;4987531;28;20420;-75
2022/08/15 13:11:17;;;;;;;11.60;5.17;;;28.00;17.50;;;;;;4989783;28;20830;-75
2022/08/15 13:13:43;;;;;;;7.33;4.70;;;28.30;17.30;;;;;;4991644;28;20293;-75
2022/08/15 13:16:09;;;;;;;11.73;4.90;;;28.40;16.00;;;;;;4992742;28;20174;-75